aviador You're here:

KOTH Decoded Metar

NORTH BEND in OR, USA
Report Time2018-02-17 23:34:00
UTC Time2018-02-17 23:42:37
Flight Rules ifr IFR
Wind250° at 12 kt
W.Decomp.*RWY 22: 11.7 kt HW 2.5 kt RCW
RWY 31: 2.5 kt HW 11.7 kt LCW
W.Rank250° ranks 17
Current wind is above 250° avg. (8.3)
Visibility4023 m
Phenomena:Light Rain
Mist
Clouds:Broken 006 Hf
Overcast 029 Hf
Ceiling600 ft
Temp09°C (ISA -6)
Dew Point09°C (100% RH)
AAT4.5°C
QNH1018 hPa
Density Alt-719 ft
Elevation13 ft
Report Wrong Elevation
Raw Report
KOTH 172334Z 25012KT 2 1/2SM -RA BR BKN006 OVC029 09/09 A3006 RMK
AO2 CIG 004V009 P0002=

Extra information for KOTH:More info

Metar Taf Metar & Taf Last 4 Metars F.Rules Stats Wind Profile Meteogram Temp Stats Airport Information Weather charts Add Link Nearby VenuesMetar ALERT Operation Metar Decoded Social comments

AIRNAV info for KOTH